sensor_id;sensor_type;location;lat;lon;timestamp;pressure;altitude;pressure_sealevel;temperature
30765;BMP180;494;48.744;10.106;2023-12-20T00:01:13;95615.00;;;8.80
30765;BMP180;494;48.744;10.106;2023-12-20T00:03:42;95583.00;;;8.90
30765;BMP180;494;48.744;10.106;2023-12-20T00:06:11;95577.00;;;8.60
30765;BMP180;494;48.744;10.106;2023-12-20T00:08:44;95330.00;;;8.80
30765;BMP180;494;48.744;10.106;2023-12-20T00:11:12;95098.00;;;8.60
30765;BMP180;494;48.744;10.106;2023-12-20T00:13:41;95598.00;;;8.90
30765;BMP180;494;48.744;10.106;2023-12-20T00:16:10;95588.00;;;8.80
30765;BMP180;494;48.744;10.106;2023-12-20T00:18:38;95582.00;;;8.60
30765;BMP180;494;48.744;10.106;2023-12-20T00:21:10;95581.00;;;8.70
30765;BMP180;494;48.744;10.106;2023-12-20T00:23:39;95563.00;;;8.50
30765;BMP180;494;48.744;10.106;2023-12-20T00:26:11;95487.00;;;8.70
30765;BMP180;494;48.744;10.106;2023-12-20T00:28:40;95573.00;;;8.70
30765;BMP180;494;48.744;10.106;2023-12-20T00:31:10;95495.00;;;8.80
30765;BMP180;494;48.744;10.106;2023-12-20T00:33:41;95558.00;;;8.80
30765;BMP180;494;48.744;10.106;2023-12-20T00:36:11;95530.00;;;9.00
30765;BMP180;494;48.744;10.106;2023-12-20T00:38:41;95587.00;;;8.90
30765;BMP180;494;48.744;10.106;2023-12-20T00:41:12;95442.00;;;9.00
30765;BMP180;494;48.744;10.106;2023-12-20T00:43:42;95558.00;;;9.10
30765;BMP180;494;48.744;10.106;2023-12-20T00:46:11;95553.00;;;9.10
30765;BMP180;494;48.744;10.106;2023-12-20T00:48:41;95544.00;;;9.10
30765;BMP180;494;48.744;10.106;2023-12-20T00:51:13;95551.00;;;9.10
30765;BMP180;494;48.744;10.106;2023-12-20T00:53:42;95506.00;;;9.10
30765;BMP180;494;48.744;10.106;2023-12-20T00:56:12;95544.00;;;8.90
30765;BMP180;494;48.744;10.106;2023-12-20T00:58:41;95485.00;;;9.10
30765;BMP180;494;48.744;10.106;2023-12-20T01:01:09;95523.00;;;9.20
30765;BMP180;494;48.744;10.106;2023-12-20T01:03:39;95524.00;;;9.20
30765;BMP180;494;48.744;10.106;2023-12-20T01:06:08;95458.00;;;9.20
30765;BMP180;494;48.744;10.106;2023-12-20T01:08:37;95542.00;;;9.10
30765;BMP180;494;48.744;10.106;2023-12-20T01:11:06;95484.00;;;9.10
30765;BMP180;494;48.744;10.106;2023-12-20T01:13:36;95198.00;;;8.60
30765;BMP180;494;48.744;10.106;2023-12-20T01:16:06;95552.00;;;8.90
30765;BMP180;494;48.744;10.106;2023-12-20T01:18:34;95536.00;;;8.50
30765;BMP180;494;48.744;10.106;2023-12-20T01:21:05;95447.00;;;8.80
30765;BMP180;494;48.744;10.106;2023-12-20T01:23:34;95536.00;;;8.90
30765;BMP180;494;48.744;10.106;2023-12-20T01:26:03;95488.00;;;8.90
30765;BMP180;494;48.744;10.106;2023-12-20T01:28:32;95464.00;;;9.00
30765;BMP180;494;48.744;10.106;2023-12-20T01:31:03;95549.00;;;8.90
30765;BMP180;494;48.744;10.106;2023-12-20T01:33:34;95535.00;;;9.10
30765;BMP180;494;48.744;10.106;2023-12-20T01:36:05;95450.00;;;9.00
30765;BMP180;494;48.744;10.106;2023-12-20T01:38:33;95284.00;;;9.00
30765;BMP180;494;48.744;10.106;2023-12-20T01:41:02;95291.00;;;9.10
30765;BMP180;494;48.744;10.106;2023-12-20T01:43:31;95057.00;;;9.20
30765;BMP180;494;48.744;10.106;2023-12-20T01:46:16;95474.00;;;8.80
30765;BMP180;494;48.744;10.106;2023-12-20T01:48:48;95422.00;;;8.90
30765;BMP180;494;48.744;10.106;2023-12-20T01:51:17;95601.00;;;9.00
30765;BMP180;494;48.744;10.106;2023-12-20T01:53:47;95492.00;;;8.80
30765;BMP180;494;48.744;10.106;2023-12-20T01:56:17;95453.00;;;8.90
30765;BMP180;494;48.744;10.106;2023-12-20T01:58:48;95539.00;;;8.80
30765;BMP180;494;48.744;10.106;2023-12-20T02:01:20;95540.00;;;8.80
30765;BMP180;494;48.744;10.106;2023-12-20T02:03:51;95542.00;;;8.70
30765;BMP180;494;48.744;10.106;2023-12-20T02:06:23;95278.00;;;8.70
30765;BMP180;494;48.744;10.106;2023-12-20T02:08:52;95551.00;;;8.70
30765;BMP180;494;48.744;10.106;2023-12-20T02:11:22;95504.00;;;8.50
30765;BMP180;494;48.744;10.106;2023-12-20T02:13:50;95526.00;;;8.20
30765;BMP180;494;48.744;10.106;2023-12-20T02:16:22;95547.00;;;8.20
30765;BMP180;494;48.744;10.106;2023-12-20T02:18:50;95367.00;;;7.70
30765;BMP180;494;48.744;10.106;2023-12-20T02:21:31;95314.00;;;7.40
30765;BMP180;494;48.744;10.106;2023-12-20T02:24:02;95467.00;;;7.00
30765;BMP180;494;48.744;10.106;2023-12-20T02:26:32;95449.00;;;7.30
30765;BMP180;494;48.744;10.106;2023-12-20T02:29:02;95532.00;;;7.50
30765;BMP180;494;48.744;10.106;2023-12-20T02:31:31;95255.00;;;7.70
30765;BMP180;494;48.744;10.106;2023-12-20T02:34:00;95458.00;;;7.70
30765;BMP180;494;48.744;10.106;2023-12-20T02:36:31;95545.00;;;6.80
30765;BMP180;494;48.744;10.106;2023-12-20T02:39:00;95552.00;;;7.40
30765;BMP180;494;48.744;10.106;2023-12-20T02:41:29;95453.00;;;7.30
30765;BMP180;494;48.744;10.106;2023-12-20T02:43:58;95462.00;;;6.80
30765;BMP180;494;48.744;10.106;2023-12-20T02:46:36;95542.00;;;7.00
30765;BMP180;494;48.744;10.106;2023-12-20T02:49:06;95550.00;;;6.90
30765;BMP180;494;48.744;10.106;2023-12-20T02:51:37;95543.00;;;7.00
30765;BMP180;494;48.744;10.106;2023-12-20T02:54:06;95450.00;;;6.70
30765;BMP180;494;48.744;10.106;2023-12-20T02:56:35;95403.00;;;6.80
30765;BMP180;494;48.744;10.106;2023-12-20T02:59:07;95421.00;;;7.00
30765;BMP180;494;48.744;10.106;2023-12-20T03:01:42;95548.00;;;7.00
30765;BMP180;494;48.744;10.106;2023-12-20T03:04:13;95423.00;;;7.10
30765;BMP180;494;48.744;10.106;2023-12-20T03:06:44;95448.00;;;7.00
30765;BMP180;494;48.744;10.106;2023-12-20T03:09:12;95561.00;;;6.80
30765;BMP180;494;48.744;10.106;2023-12-20T03:11:42;95324.00;;;6.80
30765;BMP180;494;48.744;10.106;2023-12-20T03:14:14;95524.00;;;7.00
30765;BMP180;494;48.744;10.106;2023-12-20T03:16:47;95460.00;;;5.80
30765;BMP180;494;48.744;10.106;2023-12-20T03:19:17;95531.00;;;6.80
30765;BMP180;494;48.744;10.106;2023-12-20T03:21:48;95405.00;;;6.70
30765;BMP180;494;48.744;10.106;2023-12-20T03:24:17;95336.00;;;6.80
30765;BMP180;494;48.744;10.106;2023-12-20T03:26:46;95372.00;;;6.80
30765;BMP180;494;48.744;10.106;2023-12-20T03:29:19;95422.00;;;6.70
30765;BMP180;494;48.744;10.106;2023-12-20T03:31:48;95397.00;;;6.40
30765;BMP180;494;48.744;10.106;2023-12-20T03:34:17;95108.00;;;6.40
30765;BMP180;494;48.744;10.106;2023-12-20T03:36:49;95259.00;;;6.60
30765;BMP180;494;48.744;10.106;2023-12-20T03:39:20;95444.00;;;4.10
30765;BMP180;494;48.744;10.106;2023-12-20T03:41:51;95424.00;;;6.40
30765;BMP180;494;48.744;10.106;2023-12-20T03:44:20;95293.00;;;6.50
30765;BMP180;494;48.744;10.106;2023-12-20T03:46:50;95458.00;;;5.20
30765;BMP180;494;48.744;10.106;2023-12-20T03:49:19;95454.00;;;6.40
30765;BMP180;494;48.744;10.106;2023-12-20T03:51:49;95522.00;;;6.50
30765;BMP180;494;48.744;10.106;2023-12-20T03:54:18;95548.00;;;6.60
30765;BMP180;494;48.744;10.106;2023-12-20T03:56:50;95331.00;;;5.60
30765;BMP180;494;48.744;10.106;2023-12-20T03:59:21;95452.00;;;6.60
30765;BMP180;494;48.744;10.106;2023-12-20T04:01:52;95554.00;;;6.60
30765;BMP180;494;48.744;10.106;2023-12-20T04:04:21;95450.00;;;6.60
30765;BMP180;494;48.744;10.106;2023-12-20T04:06:52;95525.00;;;6.80
30765;BMP180;494;48.744;10.106;2023-12-20T04:09:21;95530.00;;;6.20
30765;BMP180;494;48.744;10.106;2023-12-20T04:11:49;95524.00;;;6.80
30765;BMP180;494;48.744;10.106;2023-12-20T04:14:19;95572.00;;;6.70
30765;BMP180;494;48.744;10.106;2023-12-20T04:16:47;95553.00;;;6.20
30765;BMP180;494;48.744;10.106;2023-12-20T04:19:16;95438.00;;;6.80
30765;BMP180;494;48.744;10.106;2023-12-20T04:21:46;95553.00;;;6.80
30765;BMP180;494;48.744;10.106;2023-12-20T04:24:18;95483.00;;;6.40
30765;BMP180;494;48.744;10.106;2023-12-20T04:26:46;95038.00;;;6.50
30765;BMP180;494;48.744;10.106;2023-12-20T04:29:17;95573.00;;;6.70
30765;BMP180;494;48.744;10.106;2023-12-20T04:31:45;94775.00;;;5.50
30765;BMP180;494;48.744;10.106;2023-12-20T04:34:14;95553.00;;;6.70
30765;BMP180;494;48.744;10.106;2023-12-20T04:36:44;95598.00;;;6.60
30765;BMP180;494;48.744;10.106;2023-12-20T04:39:13;95565.00;;;6.60
30765;BMP180;494;48.744;10.106;2023-12-20T04:41:44;95196.00;;;6.40
30765;BMP180;494;48.744;10.106;2023-12-20T04:44:15;95572.00;;;6.80
30765;BMP180;494;48.744;10.106;2023-12-20T04:46:45;95353.00;;;6.30
30765;BMP180;494;48.744;10.106;2023-12-20T04:49:17;95459.00;;;6.80
30765;BMP180;494;48.744;10.106;2023-12-20T04:51:47;95498.00;;;6.60
30765;BMP180;494;48.744;10.106;2023-12-20T04:54:16;95483.00;;;6.60
30765;BMP180;494;48.744;10.106;2023-12-20T04:56:49;95468.00;;;6.10
30765;BMP180;494;48.744;10.106;2023-12-20T04:59:18;95575.00;;;6.60
30765;BMP180;494;48.744;10.106;2023-12-20T05:01:47;95472.00;;;6.60
30765;BMP180;494;48.744;10.106;2023-12-20T05:04:17;95402.00;;;6.20
30765;BMP180;494;48.744;10.106;2023-12-20T05:06:46;95424.00;;;6.40
30765;BMP180;494;48.744;10.106;2023-12-20T05:09:15;95487.00;;;6.60
30765;BMP180;494;48.744;10.106;2023-12-20T05:11:46;95566.00;;;6.20
30765;BMP180;494;48.744;10.106;2023-12-20T05:14:16;95160.00;;;5.90
30765;BMP180;494;48.744;10.106;2023-12-20T05:16:45;95188.00;;;6.30
30765;BMP180;494;48.744;10.106;2023-12-20T05:19:14;95434.00;;;6.30
30765;BMP180;494;48.744;10.106;2023-12-20T05:21:43;95611.00;;;6.40
30765;BMP180;494;48.744;10.106;2023-12-20T05:24:12;95498.00;;;6.40
30765;BMP180;494;48.744;10.106;2023-12-20T05:26:41;95391.00;;;6.30
30765;BMP180;494;48.744;10.106;2023-12-20T05:29:12;95630.00;;;6.30
30765;BMP180;494;48.744;10.106;2023-12-20T05:31:43;95464.00;;;6.00
30765;BMP180;494;48.744;10.106;2023-12-20T05:34:15;95637.00;;;6.10
30765;BMP180;494;48.744;10.106;2023-12-20T05:36:46;95649.00;;;6.10
30765;BMP180;494;48.744;10.106;2023-12-20T05:39:17;95489.00;;;4.90
30765;BMP180;494;48.744;10.106;2023-12-20T05:41:46;95597.00;;;4.30
30765;BMP180;494;48.744;10.106;2023-12-20T05:44:17;95615.00;;;6.00
30765;BMP180;494;48.744;10.106;2023-12-20T05:46:47;95606.00;;;5.90
30765;BMP180;494;48.744;10.106;2023-12-20T05:49:16;95697.00;;;5.90
30765;BMP180;494;48.744;10.106;2023-12-20T05:51:47;95676.00;;;4.80
30765;BMP180;494;48.744;10.106;2023-12-20T05:54:18;95633.00;;;6.10
30765;BMP180;494;48.744;10.106;2023-12-20T05:56:49;95601.00;;;5.50
30765;BMP180;494;48.744;10.106;2023-12-20T05:59:20;95644.00;;;5.90
30765;BMP180;494;48.744;10.106;2023-12-20T06:01:53;95368.00;;;5.90
30765;BMP180;494;48.744;10.106;2023-12-20T06:04:23;95610.00;;;6.20
30765;BMP180;494;48.744;10.106;2023-12-20T06:07:21;95513.00;;;5.90
30765;BMP180;494;48.744;10.106;2023-12-20T06:09:50;95696.00;;;6.10
30765;BMP180;494;48.744;10.106;2023-12-20T06:12:20;95593.00;;;5.00
30765;BMP180;494;48.744;10.106;2023-12-20T06:14:48;95588.00;;;6.20
30765;BMP180;494;48.744;10.106;2023-12-20T06:17:18;95198.00;;;5.10
30765;BMP180;494;48.744;10.106;2023-12-20T06:19:46;95541.00;;;6.10
30765;BMP180;494;48.744;10.106;2023-12-20T06:22:17;95651.00;;;6.30
30765;BMP180;494;48.744;10.106;2023-12-20T06:24:48;95669.00;;;5.90
30765;BMP180;494;48.744;10.106;2023-12-20T06:27:16;95639.00;;;6.20
30765;BMP180;494;48.744;10.106;2023-12-20T06:29:46;95687.00;;;6.10
30765;BMP180;494;48.744;10.106;2023-12-20T06:32:15;95609.00;;;6.30
30765;BMP180;494;48.744;10.106;2023-12-20T06:34:44;95474.00;;;5.40
30765;BMP180;494;48.744;10.106;2023-12-20T06:37:14;95688.00;;;6.00
30765;BMP180;494;48.744;10.106;2023-12-20T06:39:44;95545.00;;;5.90
30765;BMP180;494;48.744;10.106;2023-12-20T06:42:31;95517.00;;;5.30
30765;BMP180;494;48.744;10.106;2023-12-20T06:45:20;95695.00;;;6.10
30765;BMP180;494;48.744;10.106;2023-12-20T06:47:49;95618.00;;;6.10
30765;BMP180;494;48.744;10.106;2023-12-20T06:50:17;95303.00;;;5.90
30765;BMP180;494;48.744;10.106;2023-12-20T06:52:46;95522.00;;;5.80
30765;BMP180;494;48.744;10.106;2023-12-20T06:55:15;95604.00;;;6.10
30765;BMP180;494;48.744;10.106;2023-12-20T06:57:46;95615.00;;;6.20
30765;BMP180;494;48.744;10.106;2023-12-20T07:00:16;95546.00;;;6.00
30765;BMP180;494;48.744;10.106;2023-12-20T07:02:48;95621.00;;;6.10
30765;BMP180;494;48.744;10.106;2023-12-20T07:05:17;95408.00;;;6.10
30765;BMP180;494;48.744;10.106;2023-12-20T07:07:48;95684.00;;;6.20
30765;BMP180;494;48.744;10.106;2023-12-20T07:10:17;95686.00;;;6.00
30765;BMP180;494;48.744;10.106;2023-12-20T07:12:49;95710.00;;;6.00
30765;BMP180;494;48.744;10.106;2023-12-20T07:15:18;95093.00;;;4.80
30765;BMP180;494;48.744;10.106;2023-12-20T07:17:47;95631.00;;;6.10
30765;BMP180;494;48.744;10.106;2023-12-20T07:20:17;95656.00;;;6.10
30765;BMP180;494;48.744;10.106;2023-12-20T07:22:45;95611.00;;;6.10
30765;BMP180;494;48.744;10.106;2023-12-20T07:25:14;95365.00;;;6.10
30765;BMP180;494;48.744;10.106;2023-12-20T07:27:47;95726.00;;;5.70
30765;BMP180;494;48.744;10.106;2023-12-20T07:30:16;95414.00;;;5.90
30765;BMP180;494;48.744;10.106;2023-12-20T07:32:47;95579.00;;;6.30
30765;BMP180;494;48.744;10.106;2023-12-20T07:35:20;95434.00;;;6.20
30765;BMP180;494;48.744;10.106;2023-12-20T07:37:49;95756.00;;;6.30
30765;BMP180;494;48.744;10.106;2023-12-20T07:40:17;95736.00;;;6.50
30765;BMP180;494;48.744;10.106;2023-12-20T07:42:48;95647.00;;;6.40
30765;BMP180;494;48.744;10.106;2023-12-20T07:45:17;95675.00;;;6.50
30765;BMP180;494;48.744;10.106;2023-12-20T07:47:46;95617.00;;;6.60
30765;BMP180;494;48.744;10.106;2023-12-20T07:50:15;95622.00;;;6.80
30765;BMP180;494;48.744;10.106;2023-12-20T07:52:44;95129.00;;;6.80
30765;BMP180;494;48.744;10.106;2023-12-20T07:55:12;95612.00;;;7.00
30765;BMP180;494;48.744;10.106;2023-12-20T07:57:41;95750.00;;;7.00
30765;BMP180;494;48.744;10.106;2023-12-20T08:00:14;95574.00;;;6.80
30765;BMP180;494;48.744;10.106;2023-12-20T08:02:43;95758.00;;;6.90
30765;BMP180;494;48.744;10.106;2023-12-20T08:05:11;95362.00;;;6.50
30765;BMP180;494;48.744;10.106;2023-12-20T08:07:42;95744.00;;;6.80
30765;BMP180;494;48.744;10.106;2023-12-20T08:10:12;95643.00;;;6.90
30765;BMP180;494;48.744;10.106;2023-12-20T08:12:42;95577.00;;;6.60
30765;BMP180;494;48.744;10.106;2023-12-20T08:15:13;95772.00;;;6.60
30765;BMP180;494;48.744;10.106;2023-12-20T08:17:42;95391.00;;;4.70
30765;BMP180;494;48.744;10.106;2023-12-20T08:20:11;95717.00;;;6.40
30765;BMP180;494;48.744;10.106;2023-12-20T08:22:49;95779.00;;;6.50
30765;BMP180;494;48.744;10.106;2023-12-20T08:25:18;95668.00;;;6.30
30765;BMP180;494;48.744;10.106;2023-12-20T08:27:47;95766.00;;;6.40
30765;BMP180;494;48.744;10.106;2023-12-20T08:30:18;95777.00;;;6.80
30765;BMP180;494;48.744;10.106;2023-12-20T08:32:49;95492.00;;;6.40
30765;BMP180;494;48.744;10.106;2023-12-20T08:35:18;95458.00;;;6.20
30765;BMP180;494;48.744;10.106;2023-12-20T08:37:48;95698.00;;;6.90
30765;BMP180;494;48.744;10.106;2023-12-20T08:40:17;95757.00;;;7.00
30765;BMP180;494;48.744;10.106;2023-12-20T08:42:47;95792.00;;;6.90
30765;BMP180;494;48.744;10.106;2023-12-20T08:45:18;95782.00;;;7.30
30765;BMP180;494;48.744;10.106;2023-12-20T08:47:47;95722.00;;;7.10
30765;BMP180;494;48.744;10.106;2023-12-20T08:50:16;95721.00;;;7.00
30765;BMP180;494;48.744;10.106;2023-12-20T08:52:45;95751.00;;;7.10
30765;BMP180;494;48.744;10.106;2023-12-20T08:55:15;95732.00;;;6.80
30765;BMP180;494;48.744;10.106;2023-12-20T08:57:45;95739.00;;;6.80
30765;BMP180;494;48.744;10.106;2023-12-20T09:00:22;95793.00;;;6.60
30765;BMP180;494;48.744;10.106;2023-12-20T09:02:55;95786.00;;;6.00
30765;BMP180;494;48.744;10.106;2023-12-20T09:05:24;95726.00;;;6.60
30765;BMP180;494;48.744;10.106;2023-12-20T09:07:54;95837.00;;;6.40
30765;BMP180;494;48.744;10.106;2023-12-20T09:10:24;95700.00;;;6.40
30765;BMP180;494;48.744;10.106;2023-12-20T09:12:55;95786.00;;;6.40
30765;BMP180;494;48.744;10.106;2023-12-20T09:15:27;95745.00;;;6.50
30765;BMP180;494;48.744;10.106;2023-12-20T09:18:02;95829.00;;;6.50
30765;BMP180;494;48.744;10.106;2023-12-20T09:20:35;95694.00;;;5.70
30765;BMP180;494;48.744;10.106;2023-12-20T09:23:08;95680.00;;;5.90
30765;BMP180;494;48.744;10.106;2023-12-20T09:25:37;95748.00;;;5.70
30765;BMP180;494;48.744;10.106;2023-12-20T09:28:09;95426.00;;;6.20
30765;BMP180;494;48.744;10.106;2023-12-20T09:30:43;95623.00;;;6.30
30765;BMP180;494;48.744;10.106;2023-12-20T09:33:18;95797.00;;;6.50
30765;BMP180;494;48.744;10.106;2023-12-20T09:35:46;95795.00;;;6.90
30765;BMP180;494;48.744;10.106;2023-12-20T09:38:16;95809.00;;;6.50
30765;BMP180;494;48.744;10.106;2023-12-20T09:40:45;95673.00;;;6.70
30765;BMP180;494;48.744;10.106;2023-12-20T09:43:15;95763.00;;;6.80
30765;BMP180;494;48.744;10.106;2023-12-20T09:45:47;95819.00;;;7.00
30765;BMP180;494;48.744;10.106;2023-12-20T09:48:18;95352.00;;;8.90
30765;BMP180;494;48.744;10.106;2023-12-20T09:50:47;95792.00;;;8.60
30765;BMP180;494;48.744;10.106;2023-12-20T09:53:21;95589.00;;;8.50
30765;BMP180;494;48.744;10.106;2023-12-20T09:55:52;95775.00;;;7.60
30765;BMP180;494;48.744;10.106;2023-12-20T09:58:21;95785.00;;;7.50
30765;BMP180;494;48.744;10.106;2023-12-20T10:00:52;95509.00;;;6.50
30765;BMP180;494;48.744;10.106;2023-12-20T10:03:25;95721.00;;;7.40
30765;BMP180;494;48.744;10.106;2023-12-20T10:05:57;95699.00;;;7.60
30765;BMP180;494;48.744;10.106;2023-12-20T10:08:27;95777.00;;;7.80
30765;BMP180;494;48.744;10.106;2023-12-20T10:10:57;95693.00;;;8.30
30765;BMP180;494;48.744;10.106;2023-12-20T10:13:30;95755.00;;;8.40
30765;BMP180;494;48.744;10.106;2023-12-20T10:16:00;95699.00;;;9.10
30765;BMP180;494;48.744;10.106;2023-12-20T10:18:29;95772.00;;;9.90
30765;BMP180;494;48.744;10.106;2023-12-20T10:21:06;95554.00;;;10.20
30765;BMP180;494;48.744;10.106;2023-12-20T10:23:41;95765.00;;;9.60
30765;BMP180;494;48.744;10.106;2023-12-20T11:32:34;95804.00;;;7.60
30765;BMP180;494;48.744;10.106;2023-12-20T11:35:19;95584.00;;;7.50
30765;BMP180;494;48.744;10.106;2023-12-20T11:38:07;95745.00;;;7.50
30765;BMP180;494;48.744;10.106;2023-12-20T11:40:38;95641.00;;;6.70
30765;BMP180;494;48.744;10.106;2023-12-20T11:55:38;95775.00;;;7.40
30765;BMP180;494;48.744;10.106;2023-12-20T11:58:55;95535.00;;;6.40
30765;BMP180;494;48.744;10.106;2023-12-20T12:04:36;95667.00;;;8.30
30765;BMP180;494;48.744;10.106;2023-12-20T12:07:09;95762.00;;;8.40
30765;BMP180;494;48.744;10.106;2023-12-20T12:09:39;95724.00;;;8.20
30765;BMP180;494;48.744;10.106;2023-12-20T12:12:12;95761.00;;;7.80
30765;BMP180;494;48.744;10.106;2023-12-20T12:14:49;95501.00;;;7.40
30765;BMP180;494;48.744;10.106;2023-12-20T12:17:21;95744.00;;;7.30
30765;BMP180;494;48.744;10.106;2023-12-20T12:20:02;95724.00;;;7.40
30765;BMP180;494;48.744;10.106;2023-12-20T12:22:39;95669.00;;;6.50
30765;BMP180;494;48.744;10.106;2023-12-20T12:25:14;95764.00;;;6.50
30765;BMP180;494;48.744;10.106;2023-12-20T13:45:24;94853.00;;;7.00
30765;BMP180;494;48.744;10.106;2023-12-20T13:49:05;95754.00;;;6.70
30765;BMP180;494;48.744;10.106;2023-12-20T13:51:42;95482.00;;;6.30
30765;BMP180;494;48.744;10.106;2023-12-20T13:55:00;95726.00;;;7.00
30765;BMP180;494;48.744;10.106;2023-12-20T13:57:29;95756.00;;;5.50
30765;BMP180;494;48.744;10.106;2023-12-20T14:00:10;95782.00;;;6.80
30765;BMP180;494;48.744;10.106;2023-12-20T14:07:11;95100.00;;;6.70
30765;BMP180;494;48.744;10.106;2023-12-20T14:10:06;95795.00;;;6.80
30765;BMP180;494;48.744;10.106;2023-12-20T14:13:00;95778.00;;;5.80
30765;BMP180;494;48.744;10.106;2023-12-20T14:20:01;95434.00;;;6.10
30765;BMP180;494;48.744;10.106;2023-12-20T14:23:31;95734.00;;;6.00
30765;BMP180;494;48.744;10.106;2023-12-20T14:26:56;95736.00;;;5.70
30765;BMP180;494;48.744;10.106;2023-12-20T14:29:29;95742.00;;;5.90
30765;BMP180;494;48.744;10.106;2023-12-20T14:31:59;95726.00;;;6.20
30765;BMP180;494;48.744;10.106;2023-12-20T14:34:32;95736.00;;;6.20
30765;BMP180;494;48.744;10.106;2023-12-20T14:37:03;95792.00;;;6.10
30765;BMP180;494;48.744;10.106;2023-12-20T14:39:35;95770.00;;;5.90
30765;BMP180;494;48.744;10.106;2023-12-20T14:42:45;95721.00;;;5.30
30765;BMP180;494;48.744;10.106;2023-12-20T14:45:41;95731.00;;;6.10
30765;BMP180;494;48.744;10.106;2023-12-20T14:48:11;95674.00;;;6.30
30765;BMP180;494;48.744;10.106;2023-12-20T14:50:56;95238.00;;;5.10
30765;BMP180;494;48.744;10.106;2023-12-20T14:53:27;95697.00;;;6.00
30765;BMP180;494;48.744;10.106;2023-12-20T14:55:58;95574.00;;;5.90
30765;BMP180;494;48.744;10.106;2023-12-20T14:58:41;95201.00;;;4.10
30765;BMP180;494;48.744;10.106;2023-12-20T15:01:12;95439.00;;;6.30
30765;BMP180;494;48.744;10.106;2023-12-20T15:03:54;95137.00;;;6.00
30765;BMP180;494;48.744;10.106;2023-12-20T15:06:39;95555.00;;;6.20
30765;BMP180;494;48.744;10.106;2023-12-20T15:09:10;95521.00;;;4.50
30765;BMP180;494;48.744;10.106;2023-12-20T15:11:43;95695.00;;;6.20
30765;BMP180;494;48.744;10.106;2023-12-20T15:14:12;95747.00;;;6.40
30765;BMP180;494;48.744;10.106;2023-12-20T15:16:46;95759.00;;;6.40
30765;BMP180;494;48.744;10.106;2023-12-20T15:19:19;95342.00;;;6.40
30765;BMP180;494;48.744;10.106;2023-12-20T15:21:52;95751.00;;;6.40
30765;BMP180;494;48.744;10.106;2023-12-20T15:24:26;95634.00;;;6.10
30765;BMP180;494;48.744;10.106;2023-12-20T15:27:12;95699.00;;;6.10
30765;BMP180;494;48.744;10.106;2023-12-20T15:29:45;95224.00;;;5.70
30765;BMP180;494;48.744;10.106;2023-12-20T15:32:28;95738.00;;;5.80
30765;BMP180;494;48.744;10.106;2023-12-20T15:34:57;95464.00;;;6.00
30765;BMP180;494;48.744;10.106;2023-12-20T15:37:35;95238.00;;;5.80
30765;BMP180;494;48.744;10.106;2023-12-20T15:40:11;95144.00;;;5.70
30765;BMP180;494;48.744;10.106;2023-12-20T15:42:48;95838.00;;;5.90
30765;BMP180;494;48.744;10.106;2023-12-20T15:45:22;95732.00;;;6.10
30765;BMP180;494;48.744;10.106;2023-12-20T15:47:54;95585.00;;;5.40
30765;BMP180;494;48.744;10.106;2023-12-20T15:50:33;95714.00;;;5.20
30765;BMP180;494;48.744;10.106;2023-12-20T15:53:06;95605.00;;;6.20
30765;BMP180;494;48.744;10.106;2023-12-20T15:55:36;95752.00;;;6.10
30765;BMP180;494;48.744;10.106;2023-12-20T15:58:07;95629.00;;;6.40
30765;BMP180;494;48.744;10.106;2023-12-20T16:00:36;95729.00;;;5.90
30765;BMP180;494;48.744;10.106;2023-12-20T16:03:21;95659.00;;;6.00
30765;BMP180;494;48.744;10.106;2023-12-20T16:08:48;95774.00;;;5.10
30765;BMP180;494;48.744;10.106;2023-12-20T16:11:21;95756.00;;;5.10
30765;BMP180;494;48.744;10.106;2023-12-20T16:16:51;95593.00;;;5.60
30765;BMP180;494;48.744;10.106;2023-12-20T16:19:24;95769.00;;;5.50
30765;BMP180;494;48.744;10.106;2023-12-20T16:21:55;95758.00;;;5.90
30765;BMP180;494;48.744;10.106;2023-12-20T16:24:26;95699.00;;;5.60
30765;BMP180;494;48.744;10.106;2023-12-20T16:26:55;95446.00;;;5.80
30765;BMP180;494;48.744;10.106;2023-12-20T16:29:29;95768.00;;;6.10
30765;BMP180;494;48.744;10.106;2023-12-20T16:32:22;95746.00;;;5.80
30765;BMP180;494;48.744;10.106;2023-12-20T16:34:51;95769.00;;;6.10
30765;BMP180;494;48.744;10.106;2023-12-20T16:37:21;95598.00;;;5.10
30765;BMP180;494;48.744;10.106;2023-12-20T16:39:50;95777.00;;;6.00
30765;BMP180;494;48.744;10.106;2023-12-20T16:42:21;95420.00;;;6.20
30765;BMP180;494;48.744;10.106;2023-12-20T16:44:55;95786.00;;;6.10
30765;BMP180;494;48.744;10.106;2023-12-20T16:48:36;95740.00;;;5.80
30765;BMP180;494;48.744;10.106;2023-12-20T16:51:05;95694.00;;;6.10
30765;BMP180;494;48.744;10.106;2023-12-20T16:53:34;95626.00;;;6.20
30765;BMP180;494;48.744;10.106;2023-12-20T16:56:05;95286.00;;;6.40
30765;BMP180;494;48.744;10.106;2023-12-20T16:58:36;95761.00;;;6.50
30765;BMP180;494;48.744;10.106;2023-12-20T17:01:06;95420.00;;;6.40
30765;BMP180;494;48.744;10.106;2023-12-20T17:03:39;95807.00;;;5.50
30765;BMP180;494;48.744;10.106;2023-12-20T17:06:10;95792.00;;;6.00
30765;BMP180;494;48.744;10.106;2023-12-20T17:08:42;95505.00;;;5.70
30765;BMP180;494;48.744;10.106;2023-12-20T17:11:13;95735.00;;;5.80
30765;BMP180;494;48.744;10.106;2023-12-20T17:13:43;95782.00;;;5.80
30765;BMP180;494;48.744;10.106;2023-12-20T17:16:32;95694.00;;;5.60
30765;BMP180;494;48.744;10.106;2023-12-20T17:19:03;95588.00;;;5.80
30765;BMP180;494;48.744;10.106;2023-12-20T17:21:34;95588.00;;;5.90
30765;BMP180;494;48.744;10.106;2023-12-20T17:24:05;95718.00;;;5.60
30765;BMP180;494;48.744;10.106;2023-12-20T17:26:37;95627.00;;;5.00
30765;BMP180;494;48.744;10.106;2023-12-20T17:29:07;95752.00;;;5.90
30765;BMP180;494;48.744;10.106;2023-12-20T17:31:36;95748.00;;;5.80
30765;BMP180;494;48.744;10.106;2023-12-20T17:36:55;95725.00;;;5.70
30765;BMP180;494;48.744;10.106;2023-12-20T17:49:34;95753.00;;;5.70
30765;BMP180;494;48.744;10.106;2023-12-20T17:52:17;95492.00;;;5.10
30765;BMP180;494;48.744;10.106;2023-12-20T17:58:05;95750.00;;;5.60
30765;BMP180;494;48.744;10.106;2023-12-20T18:00:36;95637.00;;;6.00
30765;BMP180;494;48.744;10.106;2023-12-20T18:03:05;95604.00;;;5.90
30765;BMP180;494;48.744;10.106;2023-12-20T18:05:35;95642.00;;;4.80
30765;BMP180;494;48.744;10.106;2023-12-20T18:08:07;95603.00;;;5.70
30765;BMP180;494;48.744;10.106;2023-12-20T18:10:36;95580.00;;;5.60
30765;BMP180;494;48.744;10.106;2023-12-20T18:13:05;95631.00;;;6.00
30765;BMP180;494;48.744;10.106;2023-12-20T18:15:35;95745.00;;;6.00